sensor_id;sensor_type;location;lat;lon;timestamp;P1;P2;P0
78512;PMS5003;67809;55.034;73.462;2023-04-03T00:00:29;14.00;11.00;6.00
78512;PMS5003;67809;55.034;73.462;2023-04-03T00:03:05;17.00;13.00;9.00
78512;PMS5003;67809;55.034;73.462;2023-04-03T00:05:41;13.00;12.00;8.00
78512;PMS5003;67809;55.034;73.462;2023-04-03T00:08:12;15.00;12.00;8.00
78512;PMS5003;67809;55.034;73.462;2023-04-03T00:10:39;14.00;11.00;7.00
78512;PMS5003;67809;55.034;73.462;2023-04-03T00:13:05;13.00;11.00;7.25
78512;PMS5003;67809;55.034;73.462;2023-04-03T00:15:31;14.00;11.00;7.00
78512;PMS5003;67809;55.034;73.462;2023-04-03T00:17:57;13.25;10.50;6.00
78512;PMS5003;67809;55.034;73.462;2023-04-03T00:20:23;15.25;12.00;7.75
78512;PMS5003;67809;55.034;73.462;2023-04-03T00:22:50;20.00;13.00;9.00
78512;PMS5003;67809;55.034;73.462;2023-04-03T00:25:16;18.00;13.00;9.00
78512;PMS5003;67809;55.034;73.462;2023-04-03T00:27:43;14.00;12.25;7.25
78512;PMS5003;67809;55.034;73.462;2023-04-03T00:30:09;14.00;12.00;7.00
78512;PMS5003;67809;55.034;73.462;2023-04-03T00:32:36;16.00;11.00;7.00
78512;PMS5003;67809;55.034;73.462;2023-04-03T00:35:02;17.00;14.00;9.00
78512;PMS5003;67809;55.034;73.462;2023-04-03T00:37:28;14.25;10.75;7.00
78512;PMS5003;67809;55.034;73.462;2023-04-03T00:39:54;18.00;15.00;9.00
78512;PMS5003;67809;55.034;73.462;2023-04-03T00:42:27;21.00;14.00;10.00
78512;PMS5003;67809;55.034;73.462;2023-04-03T00:47:22;15.75;14.00;9.00
78512;PMS5003;67809;55.034;73.462;2023-04-03T00:49:59;18.00;15.00;10.00
78512;PMS5003;67809;55.034;73.462;2023-04-03T00:52:27;19.75;15.00;9.00
78512;PMS5003;67809;55.034;73.462;2023-04-03T00:54:54;18.00;14.00;8.75
78512;PMS5003;67809;55.034;73.462;2023-04-03T00:57:23;16.00;13.00;9.00
78512;PMS5003;67809;55.034;73.462;2023-04-03T00:59:50;17.00;14.00;9.33
78512;PMS5003;67809;55.034;73.462;2023-04-03T01:02:18;13.00;11.00;7.25
78512;PMS5003;67809;55.034;73.462;2023-04-03T01:04:44;12.75;10.25;7.00
78512;PMS5003;67809;55.034;73.462;2023-04-03T01:07:18;15.00;13.00;8.00
78512;PMS5003;67809;55.034;73.462;2023-04-03T01:09:51;13.50;11.00;7.00
78512;PMS5003;67809;55.034;73.462;2023-04-03T01:12:20;15.75;13.00;9.00
78512;PMS5003;67809;55.034;73.462;2023-04-03T01:14:59;15.25;13.00;8.00
78512;PMS5003;67809;55.034;73.462;2023-04-03T01:22:52;18.00;14.00;9.00
78512;PMS5003;67809;55.034;73.462;2023-04-03T01:25:22;20.00;16.25;12.00
78512;PMS5003;67809;55.034;73.462;2023-04-03T01:27:48;23.75;18.75;11.75
78512;PMS5003;67809;55.034;73.462;2023-04-03T01:30:16;22.33;17.67;12.00
78512;PMS5003;67809;55.034;73.462;2023-04-03T01:32:43;28.00;21.00;12.50
78512;PMS5003;67809;55.034;73.462;2023-04-03T01:35:09;26.50;20.75;13.00
78512;PMS5003;67809;55.034;73.462;2023-04-03T01:37:35;34.75;25.00;14.00
78512;PMS5003;67809;55.034;73.462;2023-04-03T01:40:02;27.00;19.67;11.33
78512;PMS5003;67809;55.034;73.462;2023-04-03T01:42:28;32.25;23.00;14.00
78512;PMS5003;67809;55.034;73.462;2023-04-03T01:44:55;33.00;23.00;13.25
78512;PMS5003;67809;55.034;73.462;2023-04-03T01:47:21;25.25;19.00;12.00
78512;PMS5003;67809;55.034;73.462;2023-04-03T01:49:47;26.50;19.00;12.00
78512;PMS5003;67809;55.034;73.462;2023-04-03T01:52:14;20.50;16.75;11.00
78512;PMS5003;67809;55.034;73.462;2023-04-03T01:54:40;21.75;17.00;11.00
78512;PMS5003;67809;55.034;73.462;2023-04-03T01:57:06;22.00;17.00;12.00
78512;PMS5003;67809;55.034;73.462;2023-04-03T01:59:33;22.00;17.75;10.75
78512;PMS5003;67809;55.034;73.462;2023-04-03T02:01:59;24.00;18.25;11.00
78512;PMS5003;67809;55.034;73.462;2023-04-03T02:04:31;20.00;15.75;10.50
78512;PMS5003;67809;55.034;73.462;2023-04-03T02:06:57;25.00;19.25;13.00
78512;PMS5003;67809;55.034;73.462;2023-04-03T02:09:23;24.00;20.00;12.00
78512;PMS5003;67809;55.034;73.462;2023-04-03T02:11:52;23.00;19.00;12.00
78512;PMS5003;67809;55.034;73.462;2023-04-03T02:14:18;25.00;20.00;12.00
78512;PMS5003;67809;55.034;73.462;2023-04-03T02:16:44;28.00;22.00;13.00
78512;PMS5003;67809;55.034;73.462;2023-04-03T02:19:10;26.75;21.50;12.75
78512;PMS5003;67809;55.034;73.462;2023-04-03T02:21:36;22.00;17.33;12.00
78512;PMS5003;67809;55.034;73.462;2023-04-03T02:24:07;24.00;19.50;12.00
78512;PMS5003;67809;55.034;73.462;2023-04-03T02:26:33;26.00;20.00;12.00
78512;PMS5003;67809;55.034;73.462;2023-04-03T02:29:00;20.00;15.00;9.00
78512;PMS5003;67809;55.034;73.462;2023-04-03T02:31:26;20.50;14.50;9.00
78512;PMS5003;67809;55.034;73.462;2023-04-03T02:33:52;23.00;17.00;10.00
78512;PMS5003;67809;55.034;73.462;2023-04-03T02:36:29;18.00;14.00;9.00
78512;PMS5003;67809;55.034;73.462;2023-04-03T02:38:58;18.75;15.50;8.75
78512;PMS5003;67809;55.034;73.462;2023-04-03T02:41:24;16.50;14.00;9.00
78512;PMS5003;67809;55.034;73.462;2023-04-03T02:43:54;20.00;15.00;11.00
78512;PMS5003;67809;55.034;73.462;2023-04-03T02:46:20;18.75;14.75;10.00
78512;PMS5003;67809;55.034;73.462;2023-04-03T02:48:46;15.00;12.00;8.00
78512;PMS5003;67809;55.034;73.462;2023-04-03T02:51:22;15.00;12.00;8.00
78512;PMS5003;67809;55.034;73.462;2023-04-03T02:53:49;19.00;15.50;10.00
78512;PMS5003;67809;55.034;73.462;2023-04-03T02:56:19;16.00;13.00;8.00
78512;PMS5003;67809;55.034;73.462;2023-04-03T02:58:46;14.50;12.00;8.00
78512;PMS5003;67809;55.034;73.462;2023-04-03T03:01:13;18.00;14.00;9.00
78512;PMS5003;67809;55.034;73.462;2023-04-03T03:03:40;17.00;13.00;8.00
78512;PMS5003;67809;55.034;73.462;2023-04-03T03:06:07;15.25;12.00;8.25
78512;PMS5003;67809;55.034;73.462;2023-04-03T03:08:43;16.00;13.00;9.00
78512;PMS5003;67809;55.034;73.462;2023-04-03T03:11:12;18.00;14.00;9.00
78512;PMS5003;67809;55.034;73.462;2023-04-03T03:13:38;20.00;15.50;10.00
78512;PMS5003;67809;55.034;73.462;2023-04-03T03:16:05;19.75;15.50;11.00
78512;PMS5003;67809;55.034;73.462;2023-04-03T03:18:31;21.00;17.00;10.00
78512;PMS5003;67809;55.034;73.462;2023-04-03T03:20:58;23.00;19.00;12.33
78512;PMS5003;67809;55.034;73.462;2023-04-03T03:23:25;25.00;19.00;12.00
78512;PMS5003;67809;55.034;73.462;2023-04-03T03:25:55;20.50;17.25;11.75
78512;PMS5003;67809;55.034;73.462;2023-04-03T03:28:22;23.00;18.50;12.00
78512;PMS5003;67809;55.034;73.462;2023-04-03T03:30:49;27.00;20.75;14.00
78512;PMS5003;67809;55.034;73.462;2023-04-03T03:33:17;28.00;21.25;13.50
78512;PMS5003;67809;55.034;73.462;2023-04-03T03:35:43;25.25;20.00;13.00
78512;PMS5003;67809;55.034;73.462;2023-04-03T03:38:10;24.00;20.00;12.00
78512;PMS5003;67809;55.034;73.462;2023-04-03T03:40:40;23.00;17.00;12.00
78512;PMS5003;67809;55.034;73.462;2023-04-03T03:43:07;20.50;16.75;10.50
78512;PMS5003;67809;55.034;73.462;2023-04-03T03:45:39;18.25;15.00;9.50
78512;PMS5003;67809;55.034;73.462;2023-04-03T03:48:05;20.00;16.00;10.00
78512;PMS5003;67809;55.034;73.462;2023-04-03T03:50:31;22.50;16.50;10.00
78512;PMS5003;67809;55.034;73.462;2023-04-03T03:52:57;22.00;18.50;12.25
78512;PMS5003;67809;55.034;73.462;2023-04-03T03:55:23;23.00;18.00;11.00
78512;PMS5003;67809;55.034;73.462;2023-04-03T03:57:53;22.00;17.00;10.75
78512;PMS5003;67809;55.034;73.462;2023-04-03T04:00:20;21.50;19.00;12.00
78512;PMS5003;67809;55.034;73.462;2023-04-03T04:02:51;33.00;25.67;17.00
78512;PMS5003;67809;55.034;73.462;2023-04-03T04:05:20;27.00;23.00;14.00
78512;PMS5003;67809;55.034;73.462;2023-04-03T04:07:47;28.75;21.00;13.00
78512;PMS5003;67809;55.034;73.462;2023-04-03T04:10:13;24.25;19.75;12.00
78512;PMS5003;67809;55.034;73.462;2023-04-03T04:12:40;26.00;20.75;12.00
78512;PMS5003;67809;55.034;73.462;2023-04-03T04:15:07;28.50;23.50;15.00
78512;PMS5003;67809;55.034;73.462;2023-04-03T04:17:39;26.50;21.00;14.00
78512;PMS5003;67809;55.034;73.462;2023-04-03T04:20:09;25.50;20.00;14.00
78512;PMS5003;67809;55.034;73.462;2023-04-03T04:22:36;24.00;20.00;13.00
78512;PMS5003;67809;55.034;73.462;2023-04-03T04:25:03;23.50;19.00;13.00
78512;PMS5003;67809;55.034;73.462;2023-04-03T04:27:30;25.00;21.00;13.00
78512;PMS5003;67809;55.034;73.462;2023-04-03T04:30:01;32.75;24.00;15.00
78512;PMS5003;67809;55.034;73.462;2023-04-03T04:32:28;29.00;22.00;13.00
78512;PMS5003;67809;55.034;73.462;2023-04-03T04:34:54;29.25;22.00;14.00
78512;PMS5003;67809;55.034;73.462;2023-04-03T04:37:20;28.50;21.75;13.00
78512;PMS5003;67809;55.034;73.462;2023-04-03T04:39:47;23.00;19.00;13.00
78512;PMS5003;67809;55.034;73.462;2023-04-03T04:42:13;24.00;19.00;12.00
78512;PMS5003;67809;55.034;73.462;2023-04-03T04:44:40;29.00;23.50;14.00
78512;PMS5003;67809;55.034;73.462;2023-04-03T04:47:06;23.25;18.00;11.25
78512;PMS5003;67809;55.034;73.462;2023-04-03T04:49:37;25.00;20.00;12.00
78512;PMS5003;67809;55.034;73.462;2023-04-03T04:52:03;24.00;20.00;12.00
78512;PMS5003;67809;55.034;73.462;2023-04-03T04:54:31;25.00;20.00;13.00
78512;PMS5003;67809;55.034;73.462;2023-04-03T04:56:57;25.75;20.75;13.00
78512;PMS5003;67809;55.034;73.462;2023-04-03T04:59:24;23.50;19.00;12.00
78512;PMS5003;67809;55.034;73.462;2023-04-03T05:01:53;23.00;19.25;12.00
78512;PMS5003;67809;55.034;73.462;2023-04-03T05:04:19;25.25;20.00;12.75
78512;PMS5003;67809;55.034;73.462;2023-04-03T05:06:49;24.00;21.00;14.00
78512;PMS5003;67809;55.034;73.462;2023-04-03T05:09:20;23.00;18.00;10.75
78512;PMS5003;67809;55.034;73.462;2023-04-03T05:11:47;27.00;21.00;14.25
78512;PMS5003;67809;55.034;73.462;2023-04-03T05:14:16;24.50;20.00;13.00
78512;PMS5003;67809;55.034;73.462;2023-04-03T05:16:43;25.00;19.00;13.00
78512;PMS5003;67809;55.034;73.462;2023-04-03T05:19:09;21.75;19.00;12.00
78512;PMS5003;67809;55.034;73.462;2023-04-03T05:21:36;26.00;21.33;14.33
78512;PMS5003;67809;55.034;73.462;2023-04-03T05:24:07;22.75;20.00;13.00
78512;PMS5003;67809;55.034;73.462;2023-04-03T05:26:37;24.00;19.75;13.00
78512;PMS5003;67809;55.034;73.462;2023-04-03T05:29:05;23.00;19.25;12.00
78512;PMS5003;67809;55.034;73.462;2023-04-03T05:31:31;24.00;20.00;14.00
78512;PMS5003;67809;55.034;73.462;2023-04-03T05:33:58;21.67;17.67;12.00
78512;PMS5003;67809;55.034;73.462;2023-04-03T05:36:25;27.25;21.00;14.00
78512;PMS5003;67809;55.034;73.462;2023-04-03T05:38:56;29.00;23.75;15.00
78512;PMS5003;67809;55.034;73.462;2023-04-03T05:41:23;26.00;21.00;13.25
78512;PMS5003;67809;55.034;73.462;2023-04-03T05:43:50;23.00;18.67;11.00
78512;PMS5003;67809;55.034;73.462;2023-04-03T05:46:18;24.00;19.00;12.00
78512;PMS5003;67809;55.034;73.462;2023-04-03T05:48:48;23.50;19.00;12.00
78512;PMS5003;67809;55.034;73.462;2023-04-03T05:51:30;26.00;22.00;14.00
78512;PMS5003;67809;55.034;73.462;2023-04-03T05:54:03;23.00;18.75;12.50
78512;PMS5003;67809;55.034;73.462;2023-04-03T05:56:32;25.00;20.00;13.00
78512;PMS5003;67809;55.034;73.462;2023-04-03T05:58:58;22.00;17.75;12.00
78512;PMS5003;67809;55.034;73.462;2023-04-03T06:01:25;20.50;17.25;11.25
78512;PMS5003;67809;55.034;73.462;2023-04-03T06:03:51;19.75;16.75;11.00
78512;PMS5003;67809;55.034;73.462;2023-04-03T06:06:19;21.00;16.00;12.00
78512;PMS5003;67809;55.034;73.462;2023-04-03T06:08:45;23.75;18.25;11.75
78512;PMS5003;67809;55.034;73.462;2023-04-03T06:11:11;22.75;18.50;11.75
78512;PMS5003;67809;55.034;73.462;2023-04-03T06:13:38;26.00;21.00;14.00
78512;PMS5003;67809;55.034;73.462;2023-04-03T06:16:11;25.00;19.00;13.00
78512;PMS5003;67809;55.034;73.462;2023-04-03T06:18:40;22.00;18.00;11.00
78512;PMS5003;67809;55.034;73.462;2023-04-03T06:21:12;36.25;26.75;16.00
78512;PMS5003;67809;55.034;73.462;2023-04-03T06:23:38;21.00;17.00;12.00
78512;PMS5003;67809;55.034;73.462;2023-04-03T06:26:05;22.75;18.00;12.25
78512;PMS5003;67809;55.034;73.462;2023-04-03T06:28:36;19.00;16.00;11.00
78512;PMS5003;67809;55.034;73.462;2023-04-03T06:31:02;25.00;21.00;15.00
78512;PMS5003;67809;55.034;73.462;2023-04-03T06:33:28;23.00;19.00;13.00
78512;PMS5003;67809;55.034;73.462;2023-04-03T06:35:57;22.75;18.00;11.75
78512;PMS5003;67809;55.034;73.462;2023-04-03T06:38:33;26.00;21.00;13.00
78512;PMS5003;67809;55.034;73.462;2023-04-03T06:40:59;25.00;19.50;12.00
78512;PMS5003;67809;55.034;73.462;2023-04-03T06:43:35;25.00;20.75;12.00
78512;PMS5003;67809;55.034;73.462;2023-04-03T06:46:08;23.00;19.00;13.00
78512;PMS5003;67809;55.034;73.462;2023-04-03T06:48:38;23.75;18.75;12.00
78512;PMS5003;67809;55.034;73.462;2023-04-03T06:51:04;23.50;18.75;12.00
78512;PMS5003;67809;55.034;73.462;2023-04-03T06:53:35;35.00;27.00;16.67
78512;PMS5003;67809;55.034;73.462;2023-04-03T06:56:01;23.00;20.00;12.50
78512;PMS5003;67809;55.034;73.462;2023-04-03T06:58:27;29.00;23.00;13.00
78512;PMS5003;67809;55.034;73.462;2023-04-03T07:00:53;25.25;19.50;12.25
78512;PMS5003;67809;55.034;73.462;2023-04-03T07:03:20;28.00;20.75;12.75
78512;PMS5003;67809;55.034;73.462;2023-04-03T07:05:52;25.75;21.00;14.00
78512;PMS5003;67809;55.034;73.462;2023-04-03T07:08:18;23.00;19.00;12.00
78512;PMS5003;67809;55.034;73.462;2023-04-03T07:10:44;24.00;19.00;12.00
78512;PMS5003;67809;55.034;73.462;2023-04-03T07:13:10;22.00;16.67;10.33
78512;PMS5003;67809;55.034;73.462;2023-04-03T07:15:36;22.00;18.25;12.00
78512;PMS5003;67809;55.034;73.462;2023-04-03T07:18:02;25.00;21.00;14.00
78512;PMS5003;67809;55.034;73.462;2023-04-03T07:20:30;22.00;18.00;11.00
78512;PMS5003;67809;55.034;73.462;2023-04-03T07:22:56;20.75;17.00;11.00
78512;PMS5003;67809;55.034;73.462;2023-04-03T07:25:22;21.25;18.00;13.00
78512;PMS5003;67809;55.034;73.462;2023-04-03T07:27:48;29.00;22.00;14.00
78512;PMS5003;67809;55.034;73.462;2023-04-03T07:30:14;17.50;14.75;10.50
78512;PMS5003;67809;55.034;73.462;2023-04-03T07:32:43;16.00;13.33;9.33
78512;PMS5003;67809;55.034;73.462;2023-04-03T07:35:10;18.00;15.25;9.75
78512;PMS5003;67809;55.034;73.462;2023-04-03T07:37:36;15.00;13.00;9.00
78512;PMS5003;67809;55.034;73.462;2023-04-03T07:40:02;19.00;15.00;10.00
78512;PMS5003;67809;55.034;73.462;2023-04-03T07:42:29;18.00;15.00;10.00
78512;PMS5003;67809;55.034;73.462;2023-04-03T07:44:56;20.00;16.00;11.00
78512;PMS5003;67809;55.034;73.462;2023-04-03T07:47:22;18.00;14.00;10.00
78512;PMS5003;67809;55.034;73.462;2023-04-03T07:49:48;24.00;19.00;12.25
78512;PMS5003;67809;55.034;73.462;2023-04-03T07:52:14;26.00;22.00;14.00
78512;PMS5003;67809;55.034;73.462;2023-04-03T07:54:44;23.00;20.00;12.00
78512;PMS5003;67809;55.034;73.462;2023-04-03T07:57:12;20.00;17.00;12.00
78512;PMS5003;67809;55.034;73.462;2023-04-03T07:59:40;19.75;17.25;11.00
78512;PMS5003;67809;55.034;73.462;2023-04-03T08:02:09;28.00;22.00;14.00
78512;PMS5003;67809;55.034;73.462;2023-04-03T08:04:35;20.00;16.00;11.00
78512;PMS5003;67809;55.034;73.462;2023-04-03T08:07:01;19.75;16.25;11.00
78512;PMS5003;67809;55.034;73.462;2023-04-03T08:09:27;20.00;16.75;11.00
78512;PMS5003;67809;55.034;73.462;2023-04-03T08:11:53;22.00;18.00;12.00
78512;PMS5003;67809;55.034;73.462;2023-04-03T08:14:20;26.00;21.00;14.00
78512;PMS5003;67809;55.034;73.462;2023-04-03T08:16:47;22.25;19.00;13.00
78512;PMS5003;67809;55.034;73.462;2023-04-03T08:19:15;22.00;19.00;12.00
78512;PMS5003;67809;55.034;73.462;2023-04-03T08:21:43;21.00;17.50;12.00
78512;PMS5003;67809;55.034;73.462;2023-04-03T08:24:10;22.75;18.25;13.00
78512;PMS5003;67809;55.034;73.462;2023-04-03T08:26:36;23.00;19.00;11.25
78512;PMS5003;67809;55.034;73.462;2023-04-03T08:29:03;19.75;16.00;10.75
78512;PMS5003;67809;55.034;73.462;2023-04-03T08:31:30;19.00;16.25;11.00
78512;PMS5003;67809;55.034;73.462;2023-04-03T08:33:58;18.00;16.00;11.00
78512;PMS5003;67809;55.034;73.462;2023-04-03T08:36:34;16.75;13.75;9.75
78512;PMS5003;67809;55.034;73.462;2023-04-03T08:39:00;17.00;15.00;10.00
78512;PMS5003;67809;55.034;73.462;2023-04-03T08:41:37;16.25;14.00;9.00
78512;PMS5003;67809;55.034;73.462;2023-04-03T08:46:56;18.00;14.75;10.00
78512;PMS5003;67809;55.034;73.462;2023-04-03T08:49:26;16.00;14.00;9.00
78512;PMS5003;67809;55.034;73.462;2023-04-03T08:52:05;19.00;17.25;12.00
78512;PMS5003;67809;55.034;73.462;2023-04-03T08:57:15;16.50;13.25;9.75
78512;PMS5003;67809;55.034;73.462;2023-04-03T08:59:41;16.00;14.00;10.00
78512;PMS5003;67809;55.034;73.462;2023-04-03T09:02:24;15.75;12.00;8.50
78512;PMS5003;67809;55.034;73.462;2023-04-03T09:04:52;16.00;14.00;10.00
78512;PMS5003;67809;55.034;73.462;2023-04-03T09:07:26;16.00;14.00;10.00
78512;PMS5003;67809;55.034;73.462;2023-04-03T09:09:58;17.00;15.00;10.00
78512;PMS5003;67809;55.034;73.462;2023-04-03T09:12:38;13.00;12.00;7.75
78512;PMS5003;67809;55.034;73.462;2023-04-03T09:17:51;18.00;15.00;11.00
78512;PMS5003;67809;55.034;73.462;2023-04-03T09:20:26;11.00;10.00;7.00
78512;PMS5003;67809;55.034;73.462;2023-04-03T09:22:55;10.50;9.00;6.00
78512;PMS5003;67809;55.034;73.462;2023-04-03T09:25:32;12.00;10.00;7.00
78512;PMS5003;67809;55.034;73.462;2023-04-03T09:27:59;10.50;9.00;6.75
78512;PMS5003;67809;55.034;73.462;2023-04-03T09:30:27;11.00;10.00;6.00
78512;PMS5003;67809;55.034;73.462;2023-04-03T09:32:55;10.75;9.00;6.00
78512;PMS5003;67809;55.034;73.462;2023-04-03T09:35:34;14.67;13.00;8.00
78512;PMS5003;67809;55.034;73.462;2023-04-03T09:42:56;13.00;11.00;8.00
78512;PMS5003;67809;55.034;73.462;2023-04-03T09:45:24;12.00;9.25;7.00
78512;PMS5003;67809;55.034;73.462;2023-04-03T09:50:53;12.00;10.00;7.00
78512;PMS5003;67809;55.034;73.462;2023-04-03T09:55:54;13.00;12.00;7.00
78512;PMS5003;67809;55.034;73.462;2023-04-03T09:58:39;16.25;14.00;8.00
78512;PMS5003;67809;55.034;73.462;2023-04-03T10:06:31;12.33;10.00;6.33
78512;PMS5003;67809;55.034;73.462;2023-04-03T10:09:01;17.25;14.25;10.00
78512;PMS5003;67809;55.034;73.462;2023-04-03T10:11:30;18.00;15.75;11.25
78512;PMS5003;67809;55.034;73.462;2023-04-03T10:14:02;14.75;12.00;8.00
78512;PMS5003;67809;55.034;73.462;2023-04-03T10:21:44;13.00;12.00;8.00
78512;PMS5003;67809;55.034;73.462;2023-04-03T10:24:14;14.00;12.00;7.00
78512;PMS5003;67809;55.034;73.462;2023-04-03T10:26:57;13.67;12.33;8.67
78512;PMS5003;67809;55.034;73.462;2023-04-03T10:32:13;13.00;11.00;7.00
78512;PMS5003;67809;55.034;73.462;2023-04-03T10:34:45;11.75;9.75;5.00
78512;PMS5003;67809;55.034;73.462;2023-04-03T10:45:27;14.00;11.33;7.00
78512;PMS5003;67809;55.034;73.462;2023-04-03T10:48:02;14.00;12.00;8.00
78512;PMS5003;67809;55.034;73.462;2023-04-03T10:50:37;14.25;10.00;7.00
78512;PMS5003;67809;55.034;73.462;2023-04-03T10:58:27;18.00;15.00;9.00
78512;PMS5003;67809;55.034;73.462;2023-04-03T11:00:55;12.00;10.00;7.00
78512;PMS5003;67809;55.034;73.462;2023-04-03T11:03:31;12.00;10.00;7.00
78512;PMS5003;67809;55.034;73.462;2023-04-03T11:05:59;11.50;10.00;6.00
78512;PMS5003;67809;55.034;73.462;2023-04-03T11:11:08;12.00;11.00;7.00
78512;PMS5003;67809;55.034;73.462;2023-04-03T11:13:43;13.75;11.00;7.00
78512;PMS5003;67809;55.034;73.462;2023-04-03T11:16:11;12.00;10.00;7.00
78512;PMS5003;67809;55.034;73.462;2023-04-03T11:21:11;13.50;11.25;8.00
78512;PMS5003;67809;55.034;73.462;2023-04-03T11:23:39;16.00;14.00;9.00
78512;PMS5003;67809;55.034;73.462;2023-04-03T11:26:21;17.00;14.33;9.00
78512;PMS5003;67809;55.034;73.462;2023-04-03T11:29:09;12.00;10.00;6.25
78512;PMS5003;67809;55.034;73.462;2023-04-03T11:36:41;12.00;10.00;7.00
78512;PMS5003;67809;55.034;73.462;2023-04-03T11:39:54;10.00;9.25;6.00
78512;PMS5003;67809;55.034;73.462;2023-04-03T11:42:24;11.00;10.00;7.00
78512;PMS5003;67809;55.034;73.462;2023-04-03T11:45:14;18.00;15.00;9.75
78512;PMS5003;67809;55.034;73.462;2023-04-03T12:00:55;15.00;14.00;9.00
78512;PMS5003;67809;55.034;73.462;2023-04-03T12:06:47;12.00;10.00;6.00
78512;PMS5003;67809;55.034;73.462;2023-04-03T12:08:52;16.25;12.00;8.00
78512;PMS5003;67809;55.034;73.462;2023-04-03T12:11:23;15.00;13.00;8.00
78512;PMS5003;67809;55.034;73.462;2023-04-03T12:26:37;17.00;14.00;8.00
78512;PMS5003;67809;55.034;73.462;2023-04-03T12:29:24;18.75;15.50;10.00
78512;PMS5003;67809;55.034;73.462;2023-04-03T12:37:48;18.00;16.00;11.00
78512;PMS5003;67809;55.034;73.462;2023-04-03T12:45:23;18.00;15.00;9.00
78512;PMS5003;67809;55.034;73.462;2023-04-03T12:47:52;16.00;13.33;9.00
78512;PMS5003;67809;55.034;73.462;2023-04-03T12:50:24;15.00;13.00;9.00
78512;PMS5003;67809;55.034;73.462;2023-04-03T12:52:57;18.50;16.00;10.00
78512;PMS5003;67809;55.034;73.462;2023-04-03T12:55:25;18.75;15.75;10.00
78512;PMS5003;67809;55.034;73.462;2023-04-03T12:58:13;22.00;19.00;12.00
78512;PMS5003;67809;55.034;73.462;2023-04-03T13:00:40;23.00;19.00;12.50
78512;PMS5003;67809;55.034;73.462;2023-04-03T13:03:07;24.00;18.25;11.50
78512;PMS5003;67809;55.034;73.462;2023-04-03T13:05:57;22.75;19.00;13.00
78512;PMS5003;67809;55.034;73.462;2023-04-03T13:08:24;18.00;16.00;11.00
78512;PMS5003;67809;55.034;73.462;2023-04-03T13:10:52;17.75;15.00;10.00
78512;PMS5003;67809;55.034;73.462;2023-04-03T13:13:20;21.25;17.25;12.00
78512;PMS5003;67809;55.034;73.462;2023-04-03T13:15:47;21.00;18.00;11.75
78512;PMS5003;67809;55.034;73.462;2023-04-03T13:18:28;22.25;18.00;11.25
78512;PMS5003;67809;55.034;73.462;2023-04-03T13:21:21;17.00;15.00;10.50
78512;PMS5003;67809;55.034;73.462;2023-04-03T13:23:47;24.00;19.00;13.75
78512;PMS5003;67809;55.034;73.462;2023-04-03T13:26:17;24.00;19.00;11.00
78512;PMS5003;67809;55.034;73.462;2023-04-03T13:28:45;26.00;21.00;13.00
78512;PMS5003;67809;55.034;73.462;2023-04-03T13:33:43;23.25;18.50;13.00
78512;PMS5003;67809;55.034;73.462;2023-04-03T13:36:20;31.50;26.50;18.25
78512;PMS5003;67809;55.034;73.462;2023-04-03T13:38:46;44.75;36.00;24.50
78512;PMS5003;67809;55.034;73.462;2023-04-03T13:41:24;36.75;30.00;21.00
78512;PMS5003;67809;55.034;73.462;2023-04-03T13:43:52;34.00;28.00;19.00
78512;PMS5003;67809;55.034;73.462;2023-04-03T13:48:55;31.67;25.00;16.00
78512;PMS5003;67809;55.034;73.462;2023-04-03T13:51:23;41.00;31.00;20.00
78512;PMS5003;67809;55.034;73.462;2023-04-03T13:53:51;45.00;35.00;23.00
78512;PMS5003;67809;55.034;73.462;2023-04-03T13:56:21;43.25;33.25;21.25
78512;PMS5003;67809;55.034;73.462;2023-04-03T13:58:58;48.67;35.33;22.33
78512;PMS5003;67809;55.034;73.462;2023-04-03T14:01:25;42.25;33.00;21.25
78512;PMS5003;67809;55.034;73.462;2023-04-03T14:06:21;42.00;33.00;20.00
78512;PMS5003;67809;55.034;73.462;2023-04-03T14:08:47;35.00;28.25;18.50
78512;PMS5003;67809;55.034;73.462;2023-04-03T14:11:25;41.50;31.50;19.75
78512;PMS5003;67809;55.034;73.462;2023-04-03T14:14:05;41.00;32.00;20.00
78512;PMS5003;67809;55.034;73.462;2023-04-03T14:16:37;42.75;33.75;21.00
78512;PMS5003;67809;55.034;73.462;2023-04-03T14:19:04;48.33;36.33;23.00
78512;PMS5003;67809;55.034;73.462;2023-04-03T14:21:30;44.25;33.50;21.25
78512;PMS5003;67809;55.034;73.462;2023-04-03T14:23:56;42.00;31.00;19.00
78512;PMS5003;67809;55.034;73.462;2023-04-03T14:26:32;35.00;28.00;17.00
78512;PMS5003;67809;55.034;73.462;2023-04-03T14:28:59;40.00;30.00;18.00
78512;PMS5003;67809;55.034;73.462;2023-04-03T14:31:25;42.00;33.00;21.00
78512;PMS5003;67809;55.034;73.462;2023-04-03T14:33:54;38.50;30.50;20.00
78512;PMS5003;67809;55.034;73.462;2023-04-03T14:36:22;54.25;39.50;25.00
78512;PMS5003;67809;55.034;73.462;2023-04-03T14:38:49;54.25;41.00;26.00
78512;PMS5003;67809;55.034;73.462;2023-04-03T14:41:18;53.00;39.75;25.75
78512;PMS5003;67809;55.034;73.462;2023-04-03T14:43:46;48.75;37.75;25.00
78512;PMS5003;67809;55.034;73.462;2023-04-03T14:46:28;45.50;36.00;24.50
78512;PMS5003;67809;55.034;73.462;2023-04-03T14:48:56;49.25;38.00;24.75
78512;PMS5003;67809;55.034;73.462;2023-04-03T14:51:28;50.25;38.00;24.75
78512;PMS5003;67809;55.034;73.462;2023-04-03T14:53:54;45.00;36.00;23.00
78512;PMS5003;67809;55.034;73.462;2023-04-03T14:56:23;49.00;38.00;24.00
78512;PMS5003;67809;55.034;73.462;2023-04-03T14:58:54;47.00;37.00;24.33
78512;PMS5003;67809;55.034;73.462;2023-04-03T15:01:21;49.50;37.50;24.75
78512;PMS5003;67809;55.034;73.462;2023-04-03T15:03:53;48.50;37.75;24.00
78512;PMS5003;67809;55.034;73.462;2023-04-03T15:06:20;51.25;39.50;25.25
78512;PMS5003;67809;55.034;73.462;2023-04-03T15:08:52;52.25;40.25;25.00
78512;PMS5003;67809;55.034;73.462;2023-04-03T15:11:18;54.00;42.00;26.00
78512;PMS5003;67809;55.034;73.462;2023-04-03T15:13:54;59.25;44.00;28.00
78512;PMS5003;67809;55.034;73.462;2023-04-03T15:16:21;60.75;45.00;28.75
78512;PMS5003;67809;55.034;73.462;2023-04-03T15:18:48;59.25;44.00;28.50
78512;PMS5003;67809;55.034;73.462;2023-04-03T15:21:14;58.00;45.00;28.00
78512;PMS5003;67809;55.034;73.462;2023-04-03T15:23:41;56.25;44.00;28.00
78512;PMS5003;67809;55.034;73.462;2023-04-03T15:26:08;63.25;47.00;29.00
78512;PMS5003;67809;55.034;73.462;2023-04-03T15:28:36;57.00;44.67;28.00
78512;PMS5003;67809;55.034;73.462;2023-04-03T15:31:03;59.00;45.00;28.00
78512;PMS5003;67809;55.034;73.462;2023-04-03T15:33:30;61.75;45.75;29.00
78512;PMS5003;67809;55.034;73.462;2023-04-03T15:35:56;59.25;45.00;28.75
78512;PMS5003;67809;55.034;73.462;2023-04-03T15:38:27;56.25;42.25;26.75